createdAt,value
2022-08-19T00:00:09.278Z,99233.59
2022-08-19T00:03:00.018Z,99236.03
2022-08-19T00:05:46.913Z,99235.59
2022-08-19T00:08:33.888Z,99243.97
2022-08-19T00:11:25.864Z,99243.34
2022-08-19T00:14:15.807Z,99246.63
2022-08-19T00:17:04.316Z,99245.59
2022-08-19T00:19:51.177Z,99246.03
2022-08-19T00:22:37.868Z,99245.38
2022-08-19T00:25:30.372Z,99247.41
2022-08-19T00:28:17.552Z,99246.81
2022-08-19T00:31:05.029Z,99247.41
2022-08-19T00:33:53.205Z,99243.09
2022-08-19T00:36:40.550Z,99244.16
2022-08-19T00:39:27.634Z,99247.41
2022-08-19T00:42:16.596Z,99237.19
2022-08-19T00:45:03.305Z,99242.94
2022-08-19T00:48:02.781Z,99239.25
2022-08-19T00:50:54.186Z,99240.53
2022-08-19T00:53:41.208Z,99241.13
2022-08-19T00:56:28.484Z,99240.53
2022-08-19T00:59:56.139Z,99242.72
2022-08-19T01:02:25.744Z,99253.16
2022-08-19T01:05:14.432Z,99245.72
2022-08-19T01:08:05.397Z,99250.00
2022-08-19T01:10:54.196Z,99253.44
2022-08-19T01:13:49.183Z,99253.81
2022-08-19T01:16:38.221Z,99256.25
2022-08-19T01:19:44.265Z,99258.69
2022-08-19T01:22:36.214Z,99251.06
2022-08-19T01:25:26.502Z,99254.13
2022-08-19T01:28:32.198Z,99250.47
2022-08-19T01:31:26.777Z,99250.06
2022-08-19T01:34:14.622Z,99245.56
2022-08-19T01:37:03.039Z,99247.63
2022-08-19T01:39:54.474Z,99240.28
2022-08-19T01:42:43.724Z,99243.56
2022-08-19T01:45:34.901Z,99236.59
2022-08-19T01:48:21.487Z,99240.72
2022-08-19T01:51:09.096Z,99239.06
2022-08-19T01:54:03.546Z,99241.97
2022-08-19T01:56:52.373Z,99240.75
2022-08-19T01:59:39.418Z,99235.44
2022-08-19T02:02:26.142Z,99238.72
2022-08-19T02:05:14.003Z,99231.34
2022-08-19T02:08:03.774Z,99234.41
2022-08-19T02:10:50.952Z,99227.19
2022-08-19T02:13:42.151Z,99230.88
2022-08-19T02:16:31.470Z,99226.56
2022-08-19T02:19:18.734Z,99229.84
2022-08-19T02:22:05.962Z,99218.19
2022-08-19T02:24:52.786Z,99213.84
2022-08-19T02:27:40.143Z,99216.53
2022-08-19T02:30:28.270Z,99220.22
2022-08-19T02:33:15.229Z,99213.84
2022-08-19T02:36:05.383Z,99212.84
2022-08-19T02:38:54.297Z,99216.53
2022-08-19T02:41:44.536Z,99207.66
2022-08-19T02:44:32.077Z,99217.72
2022-08-19T02:47:28.016Z,99221.59
2022-08-19T02:50:15.651Z,99213.16
2022-08-19T02:53:02.440Z,99220.53
2022-08-19T02:55:49.064Z,99220.88
2022-08-19T02:58:36.319Z,99208.97
2022-08-19T03:01:23.815Z,99216.31
2022-08-19T03:04:13.730Z,99214.66
2022-08-19T03:07:09.288Z,99216.31
2022-08-19T03:09:58.610Z,99217.59
2022-08-19T03:12:46.158Z,99228.31
2022-08-19T03:15:33.123Z,99222.59
2022-08-19T03:18:23.125Z,99221.22
2022-08-19T03:21:19.488Z,99226.31
2022-08-19T03:24:08.752Z,99236.38
2022-08-19T03:26:58.350Z,99241.88
2022-08-19T03:29:44.939Z,99236.09
2022-08-19T03:32:33.066Z,99243.09
2022-08-19T03:35:21.433Z,99244.09
2022-08-19T03:38:09.805Z,99249.16
2022-08-19T03:40:57.063Z,99257.16
2022-08-19T03:43:44.510Z,99252.00
2022-08-19T03:46:32.862Z,99262.88
2022-08-19T03:49:20.380Z,99258.94
2022-08-19T03:52:15.284Z,99262.59
2022-08-19T03:55:03.900Z,99269.59
2022-08-19T03:57:58.640Z,99272.50
2022-08-19T04:00:48.887Z,99274.13
2022-08-19T04:03:37.055Z,99277.47
2022-08-19T04:06:25.898Z,99275.63
2022-08-19T04:09:13.270Z,99271.78
2022-08-19T04:12:02.368Z,99272.19
2022-08-19T04:14:49.214Z,99275.69
2022-08-19T04:17:36.278Z,99272.66
2022-08-19T04:20:23.325Z,99281.88
2022-08-19T04:23:10.351Z,99287.84
2022-08-19T04:26:03.466Z,99286.63
2022-08-19T04:28:53.642Z,99293.66
2022-08-19T04:31:40.457Z,99285.91
2022-08-19T04:34:31.089Z,99287.16
2022-08-19T04:37:18.090Z,99291.72
2022-08-19T04:40:30.610Z,99287.25
2022-08-19T04:43:17.625Z,99288.94
2022-08-19T04:46:09.060Z,99288.97
2022-08-19T04:48:57.844Z,99294.41
2022-08-19T04:51:45.873Z,99297.75
2022-08-19T04:54:37.730Z,99296.59
2022-08-19T04:57:27.284Z,99301.59
2022-08-19T05:00:16.905Z,99292.19
2022-08-19T05:03:07.684Z,99292.47
2022-08-19T05:05:55.449Z,99296.81
2022-08-19T05:08:44.101Z,99293.34
2022-08-19T05:11:32.381Z,99288.22
2022-08-19T05:14:19.688Z,99292.53
2022-08-19T05:17:26.029Z,99288.97
2022-08-19T05:20:31.955Z,99287.28
2022-08-19T05:23:22.748Z,99290.50
2022-08-19T05:26:12.071Z,99292.31
2022-08-19T05:28:59.003Z,99287.72
2022-08-19T05:31:47.854Z,99282.09
2022-08-19T05:34:35.051Z,99275.44
2022-08-19T05:37:28.559Z,99278.59
2022-08-19T05:40:16.109Z,99281.16
2022-08-19T05:43:20.835Z,99281.78
2022-08-19T05:46:10.124Z,99282.81
2022-08-19T05:48:57.544Z,99282.50
2022-08-19T05:51:45.569Z,99277.56
2022-08-19T05:54:33.930Z,99265.06
2022-08-19T05:57:24.680Z,99265.00
2022-08-19T06:00:12.668Z,99270.28
2022-08-19T06:03:11.786Z,99265.25
2022-08-19T06:06:01.894Z,99268.50
2022-08-19T06:08:51.141Z,99263.47
2022-08-19T06:11:41.318Z,99263.78
2022-08-19T06:14:29.359Z,99263.47
2022-08-19T06:17:16.076Z,99256.19
2022-08-19T06:20:03.235Z,99250.47
2022-08-19T06:22:52.487Z,99261.34
2022-08-19T06:25:41.096Z,99248.84
2022-08-19T06:28:30.508Z,99245.38
2022-08-19T06:31:18.113Z,99251.47
2022-08-19T06:34:07.442Z,99252.94
2022-08-19T06:36:54.582Z,99249.84
2022-08-19T06:39:42.433Z,99256.53
2022-08-19T06:42:30.018Z,99257.84
2022-08-19T06:45:18.677Z,99262.50
2022-08-19T06:48:12.948Z,99263.78
2022-08-19T06:51:15.567Z,99262.19
2022-08-19T06:54:05.167Z,99268.00
2022-08-19T06:56:52.181Z,99268.00
2022-08-19T06:59:39.163Z,99265.03
2022-08-19T07:02:28.301Z,99264.34
2022-08-19T07:05:15.165Z,99263.28
2022-08-19T07:08:05.074Z,99262.69
2022-08-19T07:10:52.362Z,99268.66
2022-08-19T07:13:40.227Z,99263.63
2022-08-19T07:16:29.345Z,99253.03
2022-08-19T07:19:19.006Z,99256.31
2022-08-19T07:22:07.779Z,99249.53
2022-08-19T07:25:00.290Z,99261.94
2022-08-19T07:27:50.683Z,99261.78
2022-08-19T07:30:41.801Z,99259.34
2022-08-19T07:33:33.532Z,99257.78
2022-08-19T07:36:25.572Z,99264.31
2022-08-19T07:39:14.822Z,99255.75
2022-08-19T07:42:03.240Z,99264.72
2022-08-19T07:44:51.112Z,99256.69
2022-08-19T07:47:49.333Z,99256.88
2022-08-19T07:50:38.312Z,99260.63
2022-08-19T07:53:26.820Z,99260.31
2022-08-19T07:56:14.685Z,99259.34
2022-08-19T07:59:02.150Z,99246.44
2022-08-19T08:01:50.233Z,99256.06
2022-08-19T08:04:54.581Z,99256.75
2022-08-19T08:08:05.272Z,99256.66
2022-08-19T08:10:57.431Z,99247.91
2022-08-19T08:13:44.301Z,99249.34
2022-08-19T08:16:32.430Z,99242.72
2022-08-19T08:19:25.696Z,99243.06
2022-08-19T08:22:33.895Z,99241.09
2022-08-19T08:25:21.888Z,99237.81
2022-08-19T08:28:17.782Z,99254.09
2022-08-19T08:31:09.526Z,99239.47
2022-08-19T08:33:57.214Z,99241.97
2022-08-19T08:36:47.234Z,99239.94
2022-08-19T08:39:34.062Z,99237.50
2022-08-19T08:42:27.298Z,99239.25
2022-08-19T08:45:17.074Z,99249.66
2022-08-19T08:48:06.345Z,99231.00
2022-08-19T08:51:11.653Z,99235.06
2022-08-19T08:53:59.173Z,99233.47
2022-08-19T08:56:49.612Z,99245.09
2022-08-19T08:59:41.777Z,99229.69
2022-08-19T09:02:29.845Z,99234.75
2022-08-19T09:05:16.955Z,99236.56
2022-08-19T09:08:06.356Z,99238.97
2022-08-19T09:10:55.306Z,99241.56
2022-08-19T09:13:48.253Z,99239.50
2022-08-19T09:16:35.358Z,99242.72
2022-08-19T09:19:23.710Z,99240.50
2022-08-19T09:22:12.021Z,99239.69
2022-08-19T09:24:58.991Z,99246.16
2022-08-19T09:27:46.476Z,99248.41
2022-08-19T09:30:34.173Z,99254.97
2022-08-19T09:33:21.327Z,99253.94
2022-08-19T09:36:12.140Z,99252.59
2022-08-19T09:39:01.099Z,99255.00
2022-08-19T09:41:51.078Z,99246.47
2022-08-19T09:44:38.155Z,99255.59
2022-08-19T09:47:24.797Z,99241.41
2022-08-19T09:50:16.583Z,99251.81
2022-08-19T09:53:04.884Z,99247.59
2022-08-19T09:55:53.931Z,99257.84
2022-08-19T09:58:41.448Z,99245.78
2022-08-19T10:01:29.650Z,99250.72
2022-08-19T10:04:19.898Z,99242.16
2022-08-19T10:07:07.609Z,99255.09
2022-08-19T10:09:56.175Z,99259.50
2022-08-19T10:12:43.541Z,99257.28
2022-08-19T10:15:45.027Z,99258.63
2022-08-19T10:18:36.145Z,99246.94
2022-08-19T10:21:25.609Z,99250.31
2022-08-19T10:24:12.759Z,99254.63
2022-08-19T10:27:04.309Z,99250.31
2022-08-19T10:29:51.651Z,99256.75
2022-08-19T10:32:38.648Z,99250.44
2022-08-19T10:35:42.599Z,99247.31
2022-08-19T10:38:32.432Z,99254.78
2022-08-19T10:41:24.144Z,99245.34
2022-08-19T10:44:13.916Z,99255.75
2022-08-19T10:47:01.225Z,99268.88
2022-08-19T10:50:04.418Z,99276.09
2022-08-19T10:52:51.934Z,99268.44
2022-08-19T10:55:59.437Z,99275.38
2022-08-19T10:58:46.317Z,99275.28
2022-08-19T11:01:35.534Z,99282.00
2022-08-19T11:04:23.524Z,99284.91
2022-08-19T11:07:16.297Z,99282.28
2022-08-19T11:10:04.005Z,99284.25
2022-08-19T11:12:51.712Z,99284.03
2022-08-19T11:15:39.482Z,99294.06
2022-08-19T11:18:28.201Z,99297.19
2022-08-19T11:21:17.987Z,99295.44
2022-08-19T11:24:06.909Z,99279.00
2022-08-19T11:26:57.899Z,99292.16
2022-08-19T11:29:45.229Z,99278.59
2022-08-19T11:32:32.438Z,99283.47
2022-08-19T11:35:21.143Z,99285.34
2022-08-19T11:38:09.839Z,99286.56
2022-08-19T11:41:00.058Z,99287.88
2022-08-19T11:43:47.024Z,99277.84
2022-08-19T11:46:33.981Z,99275.94
2022-08-19T11:49:22.092Z,99286.00
2022-08-19T11:52:10.476Z,99280.06
2022-08-19T11:54:57.408Z,99275.81
2022-08-19T11:57:44.716Z,99274.81
2022-08-19T12:00:31.724Z,99273.16
2022-08-19T12:03:18.507Z,99270.38
2022-08-19T12:06:05.857Z,99277.03
2022-08-19T12:08:59.298Z,99274.22
2022-08-19T12:11:47.766Z,99273.75
2022-08-19T12:14:34.501Z,99270.72
2022-08-19T12:17:23.931Z,99280.03
2022-08-19T12:20:12.060Z,99276.28
2022-08-19T12:22:58.580Z,99286.81
2022-08-19T12:25:52.681Z,99275.31
2022-08-19T12:28:39.980Z,99273.78
2022-08-19T12:31:26.784Z,99282.03
2022-08-19T12:34:14.068Z,99273.97
2022-08-19T12:37:03.649Z,99277.69
2022-08-19T12:39:50.792Z,99278.34
2022-08-19T12:42:43.218Z,99280.25
2022-08-19T12:45:30.552Z,99277.22
2022-08-19T12:48:33.225Z,99281.16
2022-08-19T12:51:21.506Z,99280.38
2022-08-19T12:54:08.377Z,99282.34
2022-08-19T12:56:55.508Z,99283.31
2022-08-19T12:59:44.045Z,99294.00
2022-08-19T13:02:33.128Z,99284.88
2022-08-19T13:05:26.173Z,99287.56
2022-08-19T13:08:13.490Z,99274.03
2022-08-19T13:11:08.297Z,99279.69
2022-08-19T13:13:58.493Z,99286.41
2022-08-19T13:16:47.421Z,99281.75
2022-08-19T13:19:34.421Z,99287.38
2022-08-19T13:22:45.555Z,99285.38
2022-08-19T13:25:32.547Z,99283.22
2022-08-19T13:28:19.320Z,99280.34
2022-08-19T13:31:26.856Z,99285.00
2022-08-19T13:34:15.978Z,99283.75
2022-08-19T13:37:05.078Z,99276.88
2022-08-19T13:39:52.802Z,99287.84
2022-08-19T13:42:39.524Z,99286.25
2022-08-19T13:45:27.129Z,99290.88
2022-08-19T13:48:14.086Z,99289.22
2022-08-19T13:51:02.551Z,99285.31
2022-08-19T13:53:49.634Z,99286.56
2022-08-19T13:56:37.617Z,99284.31
2022-08-19T13:59:24.839Z,99281.72
2022-08-19T14:02:11.847Z,99292.38
2022-08-19T14:05:00.242Z,99296.72
2022-08-19T14:07:49.172Z,99284.88
2022-08-19T14:10:35.684Z,99289.41
2022-08-19T14:13:23.905Z,99292.53
2022-08-19T14:16:11.612Z,99290.69
2022-08-19T14:18:58.428Z,99292.91
2022-08-19T14:21:45.447Z,99293.66
2022-08-19T14:24:35.268Z,99289.13
2022-08-19T14:27:22.094Z,99291.88
2022-08-19T14:30:10.992Z,99285.13
2022-08-19T14:32:59.096Z,99287.13
2022-08-19T14:35:46.251Z,99290.56
2022-08-19T14:38:33.126Z,99285.06
2022-08-19T14:41:22.816Z,99284.47
2022-08-19T14:44:13.351Z,99276.25
2022-08-19T14:47:00.574Z,99283.78
2022-08-19T14:49:49.605Z,99288.91
2022-08-19T14:52:37.434Z,99286.56
2022-08-19T14:55:24.820Z,99291.75
2022-08-19T14:58:29.640Z,99293.53
2022-08-19T15:01:17.032Z,99289.13
2022-08-19T15:04:06.648Z,99291.47
2022-08-19T15:06:53.405Z,99290.34
2022-08-19T15:09:40.716Z,99279.41
2022-08-19T15:12:27.786Z,99280.72
2022-08-19T15:15:18.346Z,99274.91
2022-08-19T15:18:05.706Z,99278.88
2022-08-19T15:20:52.677Z,99271.09
2022-08-19T15:23:39.729Z,99268.22
2022-08-19T15:26:27.427Z,99266.56
2022-08-19T15:29:15.554Z,99270.84
2022-08-19T15:32:03.916Z,99267.34
2022-08-19T15:34:50.945Z,99273.84
2022-08-19T15:37:38.029Z,99268.63
2022-08-19T15:40:25.583Z,99273.81
2022-08-19T15:43:12.435Z,99264.81
2022-08-19T15:46:00.182Z,99277.53
2022-08-19T15:48:54.716Z,99277.75
2022-08-19T15:51:45.645Z,99269.19
2022-08-19T15:54:32.857Z,99278.38
2022-08-19T15:57:37.276Z,99277.19
2022-08-19T16:00:41.562Z,99280.00
2022-08-19T16:03:46.635Z,99273.13
2022-08-19T16:06:35.852Z,99272.28
2022-08-19T16:09:27.582Z,99274.88
2022-08-19T16:12:14.576Z,99280.13
2022-08-19T16:15:01.751Z,99279.84
2022-08-19T16:17:55.429Z,99279.84
2022-08-19T16:20:44.358Z,99284.41
2022-08-19T16:23:32.663Z,99281.00
2022-08-19T16:26:20.681Z,99276.53
2022-08-19T16:29:08.773Z,99286.47
2022-08-19T16:31:56.876Z,99282.75
2022-08-19T16:34:44.740Z,99291.63
2022-08-19T16:37:32.778Z,99288.53
2022-08-19T16:40:21.105Z,99288.22
2022-08-19T16:43:09.852Z,99288.63
2022-08-19T16:45:57.739Z,99294.44
2022-08-19T16:48:45.475Z,99287.44
2022-08-19T16:51:33.922Z,99306.47
2022-08-19T16:54:21.234Z,99302.72
2022-08-19T16:57:09.583Z,99304.16
2022-08-19T16:59:58.855Z,99305.81
2022-08-19T17:02:45.772Z,99305.16
2022-08-19T17:05:32.989Z,99312.63
2022-08-19T17:08:20.490Z,99310.97
2022-08-19T17:11:18.298Z,99304.38
2022-08-19T17:14:07.267Z,99304.81
2022-08-19T17:16:54.263Z,99303.78
2022-08-19T17:19:42.599Z,99298.22
2022-08-19T17:22:29.931Z,99304.03
2022-08-19T17:25:16.863Z,99306.94
2022-08-19T17:28:08.011Z,99305.78
2022-08-19T17:30:56.756Z,99302.91
2022-08-19T17:33:48.084Z,99311.56
2022-08-19T17:36:35.959Z,99317.16
2022-08-19T17:39:22.924Z,99306.66
2022-08-19T17:42:10.846Z,99313.44
2022-08-19T17:44:59.676Z,99312.41
2022-08-19T17:47:49.214Z,99316.75
2022-08-19T17:50:36.511Z,99319.03
2022-08-19T17:53:25.075Z,99317.78
2022-08-19T17:56:13.228Z,99320.06
2022-08-19T17:59:01.773Z,99321.50
2022-08-19T18:01:53.456Z,99324.81
2022-08-19T18:04:46.836Z,99326.47
2022-08-19T18:07:35.914Z,99328.53
2022-08-19T18:10:23.955Z,99332.22
2022-08-19T18:13:22.580Z,99335.91
2022-08-19T18:16:12.574Z,99336.13
2022-08-19T18:19:01.295Z,99327.69
2022-08-19T18:21:50.033Z,99338.41
2022-08-19T18:24:38.795Z,99344.38
2022-08-19T18:27:26.269Z,99342.91
2022-08-19T18:30:13.711Z,99342.50
2022-08-19T18:33:02.089Z,99343.53
2022-08-19T18:35:53.005Z,99342.09
2022-08-19T18:38:58.351Z,99339.41
2022-08-19T18:42:03.122Z,99345.16
2022-08-19T18:45:08.400Z,99355.44
2022-08-19T18:48:26.785Z,99350.28
2022-08-19T18:51:16.265Z,99346.97
2022-08-19T18:54:05.195Z,99350.69
2022-08-19T18:56:55.807Z,99344.94
2022-08-19T18:59:43.277Z,99348.63
2022-08-19T19:02:30.355Z,99347.41
2022-08-19T19:05:17.721Z,99346.97
2022-08-19T19:08:04.899Z,99346.97
2022-08-19T19:10:53.590Z,99339.59
2022-08-19T19:13:41.311Z,99342.47
2022-08-19T19:16:28.961Z,99341.22
2022-08-19T19:19:17.401Z,99339.97
2022-08-19T19:22:07.335Z,99345.75
2022-08-19T19:24:55.582Z,99342.44
2022-08-19T19:27:44.234Z,99355.81
2022-08-19T19:30:31.916Z,99355.59
2022-08-19T19:33:19.498Z,99354.34
2022-08-19T19:36:07.585Z,99349.84
2022-08-19T19:38:54.703Z,99356.44
2022-08-19T19:41:42.846Z,99357.03
2022-08-19T19:44:32.726Z,99354.34
2022-08-19T19:47:19.844Z,99348.19
2022-08-19T19:50:16.037Z,99351.69
2022-08-19T19:53:03.302Z,99351.09
2022-08-19T19:55:51.694Z,99355.19
2022-08-19T19:58:38.945Z,99351.47
2022-08-19T20:01:27.556Z,99349.63
2022-08-19T20:04:14.944Z,99346.13
2022-08-19T20:07:01.804Z,99351.84
2022-08-19T20:09:59.697Z,99357.19
2022-08-19T20:12:47.415Z,99353.50
2022-08-19T20:15:37.948Z,99354.31
2022-08-19T20:18:28.804Z,99359.25
2022-08-19T20:21:15.853Z,99359.88
2022-08-19T20:24:09.824Z,99351.06
2022-08-19T20:26:57.068Z,99353.09
2022-08-19T20:29:44.899Z,99356.81
2022-08-19T20:32:31.931Z,99356.59
2022-08-19T20:35:21.713Z,99348.97
2022-08-19T20:38:09.603Z,99345.66
2022-08-19T20:40:56.617Z,99337.88
2022-08-19T20:43:43.679Z,99346.06
2022-08-19T20:46:30.849Z,99336.59
2022-08-19T20:49:17.917Z,99339.06
2022-08-19T20:52:07.945Z,99339.00
2022-08-19T20:54:55.264Z,99347.59
2022-08-19T20:57:42.591Z,99349.66
2022-08-19T21:00:34.773Z,99341.03
2022-08-19T21:03:24.150Z,99335.06
2022-08-19T21:06:12.913Z,99338.16
2022-08-19T21:09:02.382Z,99336.69
2022-08-19T21:11:49.596Z,99333.59
2022-08-19T21:14:39.328Z,99323.75
2022-08-19T21:17:26.576Z,99329.47
2022-08-19T21:20:13.441Z,99327.41
2022-08-19T21:23:03.748Z,99327.81
2022-08-19T21:25:54.874Z,99327.16
2022-08-19T21:28:41.737Z,99312.19
2022-08-19T21:31:29.003Z,99312.16
2022-08-19T21:34:16.160Z,99303.09
2022-08-19T21:37:03.142Z,99304.53
2022-08-19T21:39:51.036Z,99303.06
2022-08-19T21:42:39.843Z,99296.91
2022-08-19T21:45:26.396Z,99295.72
2022-08-19T21:48:14.782Z,99289.13
2022-08-19T21:51:01.803Z,99293.69
2022-08-19T21:53:48.869Z,99293.28
2022-08-19T21:56:40.093Z,99298.63
2022-08-19T21:59:28.216Z,99290.84
2022-08-19T22:02:21.330Z,99294.97
2022-08-19T22:05:08.933Z,99298.84
2022-08-19T22:07:58.057Z,99288.41
2022-08-19T22:10:49.159Z,99293.75
2022-08-19T22:13:40.000Z,99297.44
2022-08-19T22:16:29.181Z,99295.41
2022-08-19T22:19:16.380Z,99293.75
2022-08-19T22:22:03.516Z,99293.31
2022-08-19T22:24:50.672Z,99297.22
2022-08-19T22:27:37.675Z,99296.13
2022-08-19T22:30:25.594Z,99301.28
2022-08-19T22:33:16.934Z,99296.59
2022-08-19T22:36:04.780Z,99293.69
2022-08-19T22:38:54.190Z,99297.56
2022-08-19T22:41:41.606Z,99289.13
2022-08-19T22:44:28.453Z,99292.41
2022-08-19T22:47:15.084Z,99291.56
2022-08-19T22:50:06.367Z,99286.66
2022-08-19T22:52:57.888Z,99291.34
2022-08-19T22:55:44.512Z,99290.34
2022-08-19T22:58:31.180Z,99297.31
2022-08-19T23:01:27.701Z,99296.50
2022-08-19T23:04:17.377Z,99295.25
2022-08-19T23:07:07.665Z,99296.28
2022-08-19T23:09:54.473Z,99289.94
2022-08-19T23:12:42.802Z,99290.34
2022-08-19T23:15:30.634Z,99280.06
2022-08-19T23:18:17.265Z,99276.38
2022-08-19T23:21:04.988Z,99287.41
2022-08-19T23:23:53.538Z,99280.19
2022-08-19T23:27:01.430Z,99281.78
2022-08-19T23:30:11.497Z,99284.06
2022-08-19T23:33:00.521Z,99289.38
2022-08-19T23:35:47.520Z,99293.06
2022-08-19T23:38:35.093Z,99291.00
2022-08-19T23:41:25.798Z,99288.16
2022-08-19T23:44:14.635Z,99294.94
2022-08-19T23:47:06.214Z,99289.59
2022-08-19T23:49:53.745Z,99291.81
2022-08-19T23:52:44.381Z,99296.09
2022-08-19T23:55:32.834Z,99304.50
2022-08-19T23:58:21.154Z,99301.59
